createdAt,value
2022-12-03T00:01:57.336Z,12.80
2022-12-03T00:04:00.048Z,13.57
2022-12-03T00:06:04.129Z,13.82
2022-12-03T00:08:06.886Z,12.93
2022-12-03T00:10:10.444Z,14.23
2022-12-03T00:12:13.101Z,13.98
2022-12-03T00:14:15.721Z,13.68
2022-12-03T00:16:18.353Z,14.02
2022-12-03T00:18:20.993Z,12.88
2022-12-03T00:20:25.012Z,13.57
2022-12-03T00:22:28.991Z,13.75
2022-12-03T00:24:31.595Z,13.50
2022-12-03T00:26:34.296Z,13.85
2022-12-03T00:28:36.928Z,13.73
2022-12-03T00:30:39.733Z,14.48
2022-12-03T00:32:42.557Z,13.98
2022-12-03T00:34:45.546Z,14.52
2022-12-03T00:36:48.449Z,15.40
2022-12-03T00:38:52.403Z,15.18
2022-12-03T00:40:55.001Z,16.05
2022-12-03T00:42:57.808Z,16.17
2022-12-03T00:45:00.448Z,15.52
2022-12-03T00:47:03.117Z,17.27
2022-12-03T00:49:06.154Z,16.33
2022-12-03T00:51:08.796Z,16.40
2022-12-03T00:53:11.499Z,17.88
2022-12-03T00:55:15.479Z,15.75
2022-12-03T00:57:18.341Z,16.05
2022-12-03T00:59:20.921Z,15.50
2022-12-03T01:01:23.589Z,15.43
2022-12-03T01:03:26.305Z,14.88
2022-12-03T01:05:28.962Z,16.35
2022-12-03T01:07:31.670Z,15.23
2022-12-03T01:09:34.366Z,15.30
2022-12-03T01:11:38.336Z,14.23
2022-12-03T01:13:40.960Z,15.25
2022-12-03T01:15:43.708Z,15.27
2022-12-03T01:17:46.305Z,14.88
2022-12-03T01:19:48.884Z,13.93
2022-12-03T01:21:52.662Z,14.55
2022-12-03T01:23:55.613Z,13.57
2022-12-03T01:25:58.224Z,14.90
2022-12-03T01:28:02.289Z,14.55
2022-12-03T01:30:06.231Z,13.98
2022-12-03T01:32:16.644Z,13.50
2022-12-03T01:34:19.265Z,13.35
2022-12-03T01:36:21.961Z,13.25
2022-12-03T01:38:24.571Z,14.27
2022-12-03T01:40:27.185Z,13.60
2022-12-03T01:42:32.601Z,13.20
2022-12-03T01:44:40.166Z,13.50
2022-12-03T01:46:43.577Z,13.90
2022-12-03T01:48:46.604Z,13.52
2022-12-03T01:50:49.407Z,12.32
2022-12-03T01:52:59.299Z,12.32
2022-12-03T01:55:05.225Z,12.85
2022-12-03T01:57:19.305Z,13.07
2022-12-03T01:59:23.956Z,14.52
2022-12-03T02:01:28.504Z,14.38
2022-12-03T02:03:31.222Z,15.60
2022-12-03T02:05:35.278Z,14.60
2022-12-03T02:07:37.934Z,16.05
2022-12-03T02:09:40.530Z,15.45
2022-12-03T02:11:46.015Z,16.17
2022-12-03T02:13:50.535Z,16.58
2022-12-03T02:15:53.191Z,16.83
2022-12-03T02:17:58.101Z,16.25
2022-12-03T02:20:02.461Z,16.00
2022-12-03T02:22:12.310Z,16.00
2022-12-03T02:24:23.704Z,16.33
2022-12-03T02:26:28.035Z,16.83
2022-12-03T02:28:30.699Z,16.42
2022-12-03T02:30:34.482Z,16.42
2022-12-03T02:32:38.195Z,16.45
2022-12-03T02:34:42.345Z,16.75
2022-12-03T02:36:44.938Z,15.98
2022-12-03T02:38:49.851Z,16.85
2022-12-03T02:40:56.696Z,15.50
2022-12-03T02:43:02.480Z,16.67
2022-12-03T02:45:10.346Z,15.15
2022-12-03T02:47:13.244Z,16.15
2022-12-03T02:49:15.916Z,14.30
2022-12-03T02:51:18.577Z,16.25
2022-12-03T02:53:25.434Z,15.82
2022-12-03T02:55:33.328Z,15.48
2022-12-03T02:57:39.988Z,15.32
2022-12-03T02:59:45.203Z,16.00
2022-12-03T03:01:48.413Z,15.38
2022-12-03T03:03:52.472Z,15.65
2022-12-03T03:05:56.650Z,15.20
2022-12-03T03:08:01.074Z,15.65
2022-12-03T03:10:05.964Z,15.68
2022-12-03T03:12:08.713Z,15.50
2022-12-03T03:14:11.418Z,16.05
2022-12-03T03:16:15.483Z,15.48
2022-12-03T03:18:18.945Z,16.05
2022-12-03T03:20:21.759Z,15.45
2022-12-03T03:22:32.927Z,15.82
2022-12-03T03:24:37.884Z,15.02
2022-12-03T03:26:40.627Z,15.57
2022-12-03T03:28:46.054Z,15.73
2022-12-03T03:30:48.773Z,15.80
2022-12-03T03:32:52.727Z,16.30
2022-12-03T03:34:56.067Z,15.60
2022-12-03T03:36:58.966Z,15.98
2022-12-03T03:39:01.725Z,15.60
2022-12-03T03:41:06.871Z,15.00
2022-12-03T03:43:09.651Z,15.90
2022-12-03T03:45:12.361Z,15.40
2022-12-03T03:47:15.765Z,16.65
2022-12-03T03:49:19.752Z,16.27
2022-12-03T03:51:23.084Z,15.93
2022-12-03T03:53:25.876Z,17.50
2022-12-03T03:55:28.967Z,16.98
2022-12-03T03:57:31.673Z,17.00
2022-12-03T03:59:34.720Z,16.90
2022-12-03T04:01:37.879Z,16.50
2022-12-03T04:03:40.733Z,17.15
2022-12-03T04:05:44.848Z,16.67
2022-12-03T04:07:47.766Z,16.75
2022-12-03T04:09:50.426Z,17.20
2022-12-03T04:12:10.766Z,15.93
2022-12-03T04:14:13.324Z,16.40
2022-12-03T04:16:16.052Z,17.05
2022-12-03T04:18:36.069Z,17.02
2022-12-03T04:20:39.175Z,16.85
2022-12-03T04:22:42.133Z,16.65
2022-12-03T04:24:44.796Z,15.90
2022-12-03T04:27:05.129Z,15.98
2022-12-03T04:29:07.058Z,17.38
2022-12-03T04:31:23.678Z,14.80
2022-12-03T04:33:55.395Z,17.80
2022-12-03T04:35:58.007Z,17.35
2022-12-03T04:38:02.546Z,17.30
2022-12-03T04:40:26.286Z,16.80
2022-12-03T04:42:28.883Z,17.38
2022-12-03T04:44:33.190Z,16.52
2022-12-03T04:46:35.860Z,17.02
2022-12-03T04:48:38.442Z,16.73
2022-12-03T04:50:41.088Z,16.70
2022-12-03T04:52:43.684Z,14.70
2022-12-03T04:54:47.828Z,16.45
2022-12-03T04:56:50.457Z,16.02
2022-12-03T04:58:53.047Z,16.77
2022-12-03T05:00:55.699Z,17.50
2022-12-03T05:02:58.395Z,16.40
2022-12-03T05:05:01.090Z,15.80
2022-12-03T05:07:03.895Z,16.10
2022-12-03T05:09:06.561Z,17.30
2022-12-03T05:11:10.513Z,16.77
2022-12-03T05:13:13.085Z,16.80
2022-12-03T05:15:15.691Z,17.38
2022-12-03T05:17:18.278Z,17.27
2022-12-03T05:19:20.851Z,17.08
2022-12-03T05:21:22.611Z,15.88
2022-12-03T05:25:27.683Z,17.60
2022-12-03T05:27:31.658Z,15.85
2022-12-03T05:29:34.411Z,16.48
2022-12-03T05:31:36.995Z,15.32
2022-12-03T05:33:44.123Z,15.90
2022-12-03T05:35:47.481Z,16.85
2022-12-03T05:37:50.066Z,17.80
2022-12-03T05:39:52.664Z,16.95
2022-12-03T05:42:13.034Z,17.40
2022-12-03T05:44:20.438Z,17.23
2022-12-03T05:46:23.541Z,16.52
2022-12-03T05:48:26.161Z,17.50
2022-12-03T05:50:30.584Z,15.45
2022-12-03T05:52:33.221Z,17.20
2022-12-03T05:54:35.860Z,18.17
2022-12-03T05:56:38.488Z,18.73
2022-12-03T05:58:41.086Z,17.92
2022-12-03T06:00:45.158Z,17.27
2022-12-03T06:02:48.174Z,16.58
2022-12-03T06:04:51.031Z,16.38
2022-12-03T06:06:53.816Z,17.60
2022-12-03T06:08:56.446Z,17.70
2022-12-03T06:10:59.053Z,17.35
2022-12-03T06:13:02.171Z,18.17
2022-12-03T06:15:05.551Z,17.80
2022-12-03T06:17:09.582Z,18.17
2022-12-03T06:19:12.167Z,16.60
2022-12-03T06:21:14.751Z,17.50
2022-12-03T06:23:17.330Z,17.75
2022-12-03T06:25:19.930Z,17.20
2022-12-03T06:27:23.082Z,17.45
2022-12-03T06:29:25.735Z,17.58
2022-12-03T06:31:28.440Z,18.45
2022-12-03T06:33:32.446Z,17.50
2022-12-03T06:35:35.023Z,17.52
2022-12-03T06:37:37.639Z,17.92
2022-12-03T06:39:40.221Z,18.10
2022-12-03T06:41:42.908Z,17.17
2022-12-03T06:43:45.493Z,18.45
2022-12-03T06:45:48.718Z,19.17
2022-12-03T06:47:51.336Z,17.95
2022-12-03T06:49:55.435Z,18.35
2022-12-03T06:51:58.056Z,18.30
2022-12-03T06:54:00.630Z,18.00
2022-12-03T06:56:03.210Z,17.58
2022-12-03T06:58:05.827Z,18.80
2022-12-03T07:00:09.888Z,18.08
2022-12-03T07:02:13.218Z,18.95
2022-12-03T07:04:18.835Z,16.58
2022-12-03T07:06:22.790Z,19.70
2022-12-03T07:08:25.446Z,18.40
2022-12-03T07:10:28.219Z,19.40
2022-12-03T07:12:31.625Z,19.75
2022-12-03T07:14:34.260Z,19.52
2022-12-03T07:16:37.281Z,19.08
2022-12-03T07:18:39.974Z,19.05
2022-12-03T07:20:42.566Z,18.30
2022-12-03T07:22:46.513Z,19.02
2022-12-03T07:24:49.149Z,20.02
2022-12-03T07:26:51.719Z,18.33
2022-12-03T07:28:54.345Z,17.83
2022-12-03T07:30:56.992Z,18.30
2022-12-03T07:32:59.622Z,18.23
2022-12-03T07:35:02.867Z,18.00
2022-12-03T07:37:05.538Z,19.15
2022-12-03T07:39:09.533Z,18.15
2022-12-03T07:41:12.209Z,17.33
2022-12-03T07:43:14.816Z,19.70
2022-12-03T07:45:17.483Z,19.73
2022-12-03T07:47:20.215Z,17.77
2022-12-03T07:49:22.814Z,17.58
2022-12-03T07:51:30.631Z,18.75
2022-12-03T07:53:36.099Z,18.30
2022-12-03T07:55:40.068Z,19.02
2022-12-03T07:57:42.637Z,20.13
2022-12-03T07:59:45.218Z,17.88
2022-12-03T08:01:47.848Z,18.70
2022-12-03T08:03:50.507Z,18.48
2022-12-03T08:05:55.283Z,18.90
2022-12-03T08:07:58.019Z,18.70
2022-12-03T08:10:00.684Z,18.55
2022-12-03T08:12:13.978Z,18.55
2022-12-03T08:14:18.028Z,18.77
2022-12-03T08:16:23.447Z,18.35
2022-12-03T08:18:26.228Z,18.30
2022-12-03T08:20:33.722Z,19.00
2022-12-03T08:22:36.297Z,18.95
2022-12-03T08:24:39.064Z,20.63
2022-12-03T08:26:43.875Z,18.65
2022-12-03T08:28:48.247Z,18.70
2022-12-03T08:31:01.176Z,20.45
2022-12-03T08:33:14.616Z,19.85
2022-12-03T08:35:23.643Z,20.52
2022-12-03T08:37:26.340Z,19.50
2022-12-03T08:39:33.545Z,20.00
2022-12-03T08:41:54.739Z,19.80
2022-12-03T08:43:58.701Z,20.00
2022-12-03T08:46:01.640Z,18.90
2022-12-03T08:48:11.186Z,19.10
2022-12-03T08:50:28.280Z,19.80
2022-12-03T08:52:33.257Z,19.08
2022-12-03T08:54:35.906Z,19.05
2022-12-03T08:56:38.660Z,19.23
2022-12-03T08:58:43.399Z,18.65
2022-12-03T09:00:47.374Z,17.23
2022-12-03T09:02:53.181Z,18.27
2022-12-03T09:04:56.134Z,17.27
2022-12-03T09:06:59.135Z,16.88
2022-12-03T09:09:06.544Z,16.35
2022-12-03T09:11:09.490Z,17.35
2022-12-03T09:13:12.332Z,15.30
2022-12-03T09:15:14.958Z,15.57
2022-12-03T09:17:18.925Z,14.73
2022-12-03T09:19:21.528Z,14.70
2022-12-03T09:21:24.118Z,14.95
2022-12-03T09:23:26.731Z,14.20
2022-12-03T09:25:29.351Z,13.40
2022-12-03T09:27:31.935Z,13.70
2022-12-03T09:29:34.591Z,13.38
2022-12-03T09:31:37.322Z,13.20
2022-12-03T09:33:41.303Z,12.73
2022-12-03T09:35:43.892Z,13.30
2022-12-03T09:37:46.597Z,12.70
2022-12-03T09:39:49.207Z,12.23
2022-12-03T09:41:51.885Z,12.73
2022-12-03T09:44:17.142Z,12.40
2022-12-03T09:46:18.102Z,12.68
2022-12-03T09:48:21.965Z,11.88
2022-12-03T09:50:28.007Z,12.80
2022-12-03T09:52:34.850Z,13.20
2022-12-03T09:54:41.557Z,12.75
2022-12-03T09:56:46.850Z,13.32
2022-12-03T09:58:50.611Z,13.30
2022-12-03T10:00:53.366Z,13.40
2022-12-03T10:02:59.065Z,13.27
2022-12-03T10:05:01.755Z,12.15
2022-12-03T10:07:05.719Z,13.10
2022-12-03T10:09:11.077Z,12.18
2022-12-03T10:11:13.750Z,12.02
2022-12-03T10:13:25.476Z,11.70
2022-12-03T10:15:28.752Z,11.48
2022-12-03T10:17:32.913Z,12.07
2022-12-03T10:19:37.584Z,11.10
2022-12-03T10:21:40.346Z,11.93
2022-12-03T10:23:48.221Z,12.82
2022-12-03T10:25:55.617Z,11.85
2022-12-03T10:28:00.838Z,10.18
2022-12-03T10:30:06.379Z,12.20
2022-12-03T10:32:13.195Z,12.13
2022-12-03T10:34:25.075Z,13.07
2022-12-03T10:38:30.141Z,12.98
2022-12-03T10:40:36.499Z,13.50
2022-12-03T10:42:41.558Z,12.25
2022-12-03T10:44:44.335Z,13.32
2022-12-03T10:47:05.245Z,13.35
2022-12-03T10:49:16.177Z,13.20
2022-12-03T10:51:21.079Z,12.43
2022-12-03T10:53:27.952Z,13.68
2022-12-03T10:55:38.473Z,13.50
2022-12-03T10:57:45.674Z,13.23
2022-12-03T10:59:48.675Z,13.38
2022-12-03T11:01:51.904Z,14.13
2022-12-03T11:03:57.683Z,12.55
2022-12-03T11:06:02.256Z,14.02
2022-12-03T11:08:05.332Z,12.85
2022-12-03T11:10:14.860Z,13.68
2022-12-03T11:12:22.226Z,12.95
2022-12-03T11:15:06.547Z,12.63
2022-12-03T11:17:12.121Z,11.88
2022-12-03T11:19:19.103Z,13.30
2022-12-03T11:21:21.776Z,12.40
2022-12-03T11:23:57.748Z,12.77
2022-12-03T11:26:00.397Z,11.68
2022-12-03T11:28:34.145Z,11.50
2022-12-03T11:31:09.220Z,11.88
2022-12-03T11:33:22.928Z,11.43
2022-12-03T11:35:36.734Z,10.60
2022-12-03T11:37:39.675Z,11.70
2022-12-03T11:40:02.778Z,12.82
2022-12-03T11:42:29.850Z,12.15
2022-12-03T11:44:33.853Z,11.75
2022-12-03T11:46:43.548Z,11.07
2022-12-03T11:48:47.513Z,10.93
2022-12-03T11:50:52.677Z,11.70
2022-12-03T11:52:57.358Z,11.23
2022-12-03T11:55:06.017Z,10.85
2022-12-03T11:57:27.423Z,11.18
2022-12-03T11:59:30.182Z,10.80
2022-12-03T12:01:38.852Z,11.00
2022-12-03T12:03:45.121Z,11.18
2022-12-03T12:05:47.852Z,9.43
2022-12-03T12:07:50.966Z,10.30
2022-12-03T12:09:55.541Z,10.73
2022-12-03T12:12:19.436Z,11.32
2022-12-03T12:14:27.835Z,11.38
2022-12-03T12:16:41.035Z,10.38
2022-12-03T12:18:51.135Z,10.63
2022-12-03T12:21:33.565Z,11.00
2022-12-03T12:23:36.234Z,9.90
2022-12-03T12:25:41.329Z,10.98
2022-12-03T12:27:45.480Z,10.15
2022-12-03T12:29:55.879Z,10.35
2022-12-03T12:32:03.298Z,9.48
2022-12-03T12:34:12.341Z,10.45
2022-12-03T12:36:15.048Z,9.98
2022-12-03T12:38:19.559Z,10.50
2022-12-03T12:40:24.909Z,10.05
2022-12-03T12:42:33.950Z,10.00
2022-12-03T12:44:36.568Z,10.23
2022-12-03T12:46:47.760Z,9.77
2022-12-03T12:48:56.487Z,10.25
2022-12-03T12:51:10.087Z,9.93
2022-12-03T12:53:17.959Z,10.50
2022-12-03T12:55:21.532Z,10.32
2022-12-03T12:57:24.686Z,9.95
2022-12-03T12:59:27.308Z,10.10
2022-12-03T13:01:32.527Z,9.90
2022-12-03T13:03:37.946Z,9.68
2022-12-03T13:05:45.515Z,11.68
2022-12-03T13:07:48.871Z,10.20
2022-12-03T13:09:55.609Z,10.70
2022-12-03T13:12:00.586Z,9.63
2022-12-03T13:14:11.431Z,10.68
2022-12-03T13:16:20.425Z,10.88
2022-12-03T13:18:32.342Z,10.60
2022-12-03T13:22:38.714Z,9.90
2022-12-03T13:24:44.804Z,10.40
2022-12-03T13:26:47.403Z,11.57
2022-12-03T13:28:50.467Z,11.38
2022-12-03T13:30:53.098Z,11.27
2022-12-03T13:32:56.046Z,10.75
2022-12-03T13:35:06.898Z,11.07
2022-12-03T13:37:15.018Z,11.82
2022-12-03T13:39:22.382Z,11.50
2022-12-03T13:41:50.874Z,10.77
2022-12-03T13:43:53.897Z,10.07
2022-12-03T13:45:56.668Z,10.52
2022-12-03T13:48:01.007Z,10.95
2022-12-03T13:50:20.085Z,9.88
2022-12-03T13:52:26.168Z,10.93
2022-12-03T13:54:31.495Z,10.48
2022-12-03T13:56:36.309Z,10.43
2022-12-03T13:58:38.930Z,10.85
2022-12-03T14:00:41.608Z,11.70
2022-12-03T14:02:44.717Z,11.48
2022-12-03T14:04:47.369Z,11.18
2022-12-03T14:06:50.129Z,10.73
2022-12-03T14:09:07.820Z,12.43
2022-12-03T14:11:33.207Z,12.60
2022-12-03T14:13:35.912Z,12.45
2022-12-03T14:15:38.524Z,11.95
2022-12-03T14:17:41.441Z,10.27
2022-12-03T14:19:44.065Z,10.32
2022-12-03T14:21:46.689Z,9.38
2022-12-03T14:23:49.280Z,10.02
2022-12-03T14:25:51.879Z,9.90
2022-12-03T14:27:55.881Z,11.18
2022-12-03T14:29:58.454Z,10.27
2022-12-03T14:32:01.200Z,9.23
2022-12-03T14:34:03.902Z,10.73
2022-12-03T14:36:06.881Z,10.35
2022-12-03T14:38:09.487Z,10.35
2022-12-03T14:40:17.972Z,9.90
2022-12-03T14:42:23.654Z,10.15
2022-12-03T14:44:27.669Z,10.60
2022-12-03T14:46:30.236Z,10.13
2022-12-03T14:48:32.807Z,10.02
2022-12-03T14:50:35.440Z,9.75
2022-12-03T14:52:38.466Z,9.90
2022-12-03T14:54:42.288Z,9.20
2022-12-03T14:56:45.335Z,9.82
2022-12-03T14:58:47.907Z,9.15
2022-12-03T15:00:51.901Z,9.48
2022-12-03T15:02:54.574Z,10.02
2022-12-03T15:04:57.216Z,9.68
2022-12-03T15:06:59.874Z,10.05
2022-12-03T15:09:02.459Z,9.75
2022-12-03T15:11:05.105Z,9.68
2022-12-03T15:13:07.685Z,10.10
2022-12-03T15:15:11.382Z,9.88
2022-12-03T15:17:15.372Z,9.60
2022-12-03T15:19:18.070Z,9.80
2022-12-03T15:21:20.722Z,9.45
2022-12-03T15:23:23.315Z,9.55
2022-12-03T15:25:26.082Z,9.35
2022-12-03T15:27:28.691Z,9.35
2022-12-03T15:29:32.751Z,9.73
2022-12-03T15:31:35.428Z,9.90
2022-12-03T15:33:39.433Z,9.30
2022-12-03T15:35:42.807Z,9.60
2022-12-03T15:37:45.555Z,9.15
2022-12-03T15:39:48.985Z,8.82
2022-12-03T15:41:51.747Z,8.40
2022-12-03T15:43:54.396Z,9.75
2022-12-03T15:45:57.121Z,8.38
2022-12-03T15:47:59.852Z,8.45
2022-12-03T15:50:03.867Z,8.20
2022-12-03T15:52:07.772Z,9.05
2022-12-03T15:54:12.145Z,9.48
2022-12-03T15:56:15.106Z,8.90
2022-12-03T15:58:17.668Z,9.80
2022-12-03T16:00:21.382Z,9.73
2022-12-03T16:02:24.038Z,8.70
2022-12-03T16:04:26.663Z,9.25
2022-12-03T16:06:30.574Z,8.85
2022-12-03T16:08:33.250Z,9.65
2022-12-03T16:10:35.881Z,8.85
2022-12-03T16:12:38.511Z,9.00
2022-12-03T16:14:41.112Z,9.25
2022-12-03T16:16:43.710Z,8.90
2022-12-03T16:18:47.005Z,9.43
2022-12-03T16:20:49.797Z,9.77
2022-12-03T16:22:54.018Z,9.82
2022-12-03T16:24:56.604Z,9.27
2022-12-03T16:26:59.269Z,9.52
2022-12-03T16:29:01.955Z,10.40
2022-12-03T16:31:04.773Z,9.48
2022-12-03T16:33:07.395Z,10.27
2022-12-03T16:35:10.333Z,9.20
2022-12-03T16:37:12.983Z,9.80
2022-12-03T16:39:17.286Z,9.35
2022-12-03T16:41:19.895Z,8.95
2022-12-03T16:43:22.466Z,10.25
2022-12-03T16:45:51.226Z,11.80
2022-12-03T16:47:53.849Z,10.02
2022-12-03T16:49:56.555Z,10.27
2022-12-03T16:51:59.221Z,10.25
2022-12-03T16:54:01.831Z,9.60
2022-12-03T16:56:06.195Z,10.57
2022-12-03T16:58:08.772Z,9.77
2022-12-03T17:00:12.365Z,10.35
2022-12-03T17:02:15.228Z,10.35
2022-12-03T17:04:17.991Z,10.40
2022-12-03T17:06:20.614Z,9.73
2022-12-03T17:08:23.337Z,10.50
2022-12-03T17:10:26.087Z,10.98
2022-12-03T17:12:47.923Z,10.43
2022-12-03T17:14:52.769Z,9.85
2022-12-03T17:16:55.411Z,9.32
2022-12-03T17:18:57.994Z,9.23
2022-12-03T17:21:00.579Z,9.90
2022-12-03T17:23:03.523Z,9.80
2022-12-03T17:25:06.616Z,9.70
2022-12-03T17:27:09.234Z,10.25
2022-12-03T17:29:14.198Z,10.05
2022-12-03T17:31:16.928Z,9.80
2022-12-03T17:33:19.617Z,9.93
2022-12-03T17:35:22.318Z,10.52
2022-12-03T17:37:25.124Z,11.95
2022-12-03T17:39:27.708Z,10.75
2022-12-03T17:41:30.336Z,10.48
2022-12-03T17:43:32.926Z,11.10
2022-12-03T17:45:36.888Z,10.40
2022-12-03T17:47:39.514Z,11.52
2022-12-03T17:49:42.176Z,10.95
2022-12-03T17:51:44.792Z,11.65
2022-12-03T17:53:47.412Z,12.10
2022-12-03T17:55:53.119Z,12.77
2022-12-03T17:57:55.756Z,12.98
2022-12-03T17:59:58.383Z,12.95
2022-12-03T18:02:02.446Z,13.00
2022-12-03T18:04:05.205Z,11.82
2022-12-03T18:06:11.059Z,12.32
2022-12-03T18:08:13.670Z,11.00
2022-12-03T18:10:16.449Z,11.43
2022-12-03T18:12:19.039Z,10.38
2022-12-03T18:14:21.612Z,11.00
2022-12-03T18:16:24.298Z,11.50
2022-12-03T18:18:28.287Z,11.15
2022-12-03T18:20:30.940Z,12.05
2022-12-03T18:22:33.726Z,11.25
2022-12-03T18:24:36.375Z,11.93
2022-12-03T18:26:42.690Z,13.40
2022-12-03T18:28:45.295Z,12.20
2022-12-03T18:30:52.540Z,11.70
2022-12-03T18:32:55.663Z,11.65
2022-12-03T18:34:59.668Z,12.25
2022-12-03T18:37:02.341Z,12.77
2022-12-03T18:39:09.046Z,12.75
2022-12-03T18:41:11.685Z,12.15
2022-12-03T18:43:16.840Z,13.27
2022-12-03T18:45:20.016Z,12.80
2022-12-03T18:47:24.511Z,12.77
2022-12-03T18:49:27.152Z,12.73
2022-12-03T18:51:31.100Z,12.68
2022-12-03T18:53:36.296Z,13.20
2022-12-03T18:55:39.192Z,13.45
2022-12-03T18:57:41.784Z,13.77
2022-12-03T18:59:44.367Z,13.23
2022-12-03T19:01:46.959Z,14.13
2022-12-03T19:03:50.050Z,14.27
2022-12-03T19:05:52.730Z,14.23
2022-12-03T19:07:56.782Z,14.00
2022-12-03T19:09:59.414Z,13.43
2022-12-03T19:12:01.977Z,14.93
2022-12-03T19:14:04.553Z,13.27
2022-12-03T19:16:08.687Z,14.23
2022-12-03T19:18:11.322Z,14.00
2022-12-03T19:20:14.357Z,15.90
2022-12-03T19:22:17.064Z,14.38
2022-12-03T19:24:25.271Z,15.80
2022-12-03T19:26:28.482Z,15.77
2022-12-03T19:28:31.584Z,15.80
2022-12-03T19:30:34.252Z,15.98
2022-12-03T19:32:37.127Z,15.85
2022-12-03T19:34:39.876Z,15.45
2022-12-03T19:36:42.531Z,16.50
2022-12-03T19:38:52.130Z,17.05
2022-12-03T19:41:03.960Z,16.38
2022-12-03T19:43:06.546Z,17.55
2022-12-03T19:45:10.554Z,17.05
2022-12-03T19:47:13.154Z,16.55
2022-12-03T19:49:16.655Z,16.88
2022-12-03T19:51:34.251Z,16.98
2022-12-03T19:53:38.258Z,17.73
2022-12-03T19:55:40.914Z,17.35
2022-12-03T19:57:44.860Z,17.33
2022-12-03T19:59:47.523Z,17.00
2022-12-03T20:01:50.220Z,17.88
2022-12-03T20:03:54.781Z,17.38
2022-12-03T20:06:01.138Z,17.20
2022-12-03T20:08:04.701Z,17.73
2022-12-03T20:10:08.501Z,17.13
2022-12-03T20:12:11.112Z,18.35
2022-12-03T20:14:16.408Z,18.10
2022-12-03T20:16:19.142Z,17.58
2022-12-03T20:18:21.805Z,17.13
2022-12-03T20:20:24.780Z,17.35
2022-12-03T20:22:27.419Z,16.80
2022-12-03T20:24:30.011Z,17.38
2022-12-03T20:26:33.117Z,17.77
2022-12-03T20:28:35.808Z,17.52
2022-12-03T20:30:39.785Z,16.52
2022-12-03T20:32:45.454Z,17.25
2022-12-03T20:34:49.601Z,17.27
2022-12-03T20:36:52.285Z,17.23
2022-12-03T20:38:55.833Z,16.25
2022-12-03T20:41:02.018Z,16.75
2022-12-03T20:43:04.606Z,16.85
2022-12-03T20:45:08.454Z,16.42
2022-12-03T20:47:12.435Z,17.65
2022-12-03T20:49:15.023Z,16.40
2022-12-03T20:51:19.857Z,16.83
2022-12-03T20:53:25.254Z,15.55
2022-12-03T20:55:28.330Z,15.82
2022-12-03T20:57:30.919Z,16.25
2022-12-03T20:59:33.697Z,16.13
2022-12-03T21:01:38.391Z,15.35
2022-12-03T21:03:42.479Z,15.63
2022-12-03T21:05:45.290Z,15.15
2022-12-03T21:07:48.109Z,14.65
2022-12-03T21:09:50.816Z,16.58
2022-12-03T21:11:53.684Z,13.98
2022-12-03T21:13:56.853Z,14.57
2022-12-03T21:16:05.473Z,14.80
2022-12-03T21:18:08.819Z,14.88
2022-12-03T21:20:16.673Z,15.55
2022-12-03T21:22:23.437Z,15.32
2022-12-03T21:24:26.115Z,14.10
2022-12-03T21:26:28.774Z,15.70
2022-12-03T21:28:31.903Z,14.93
2022-12-03T21:30:37.604Z,13.90
2022-12-03T21:32:40.311Z,14.57
2022-12-03T21:34:42.913Z,15.23
2022-12-03T21:36:47.177Z,14.77
2022-12-03T21:38:49.938Z,14.68
2022-12-03T21:40:52.515Z,14.63
2022-12-03T21:42:55.234Z,13.98
2022-12-03T21:44:57.932Z,14.13
2022-12-03T21:47:09.359Z,14.00
2022-12-03T21:49:19.296Z,13.52
2022-12-03T21:51:21.982Z,13.82
2022-12-03T21:53:26.088Z,14.05
2022-12-03T21:55:31.963Z,15.60
2022-12-03T21:57:36.610Z,14.88
2022-12-03T21:59:39.213Z,14.27
2022-12-03T22:01:46.961Z,14.18
2022-12-03T22:03:50.629Z,14.07
2022-12-03T22:05:53.283Z,13.80
2022-12-03T22:07:55.921Z,14.23
2022-12-03T22:09:59.947Z,15.00
2022-12-03T22:12:02.610Z,14.90
2022-12-03T22:14:06.919Z,14.95
2022-12-03T22:16:12.091Z,14.20
2022-12-03T22:18:14.788Z,14.13
2022-12-03T22:20:17.536Z,15.30
2022-12-03T22:22:21.018Z,14.63
2022-12-03T22:24:24.037Z,14.40
2022-12-03T22:26:28.018Z,15.90
2022-12-03T22:28:30.661Z,15.27
2022-12-03T22:30:33.340Z,15.65
2022-12-03T22:32:36.323Z,15.07
2022-12-03T22:34:40.879Z,14.57
2022-12-03T22:36:43.525Z,15.20
2022-12-03T22:38:46.593Z,15.48
2022-12-03T22:40:49.178Z,14.93
2022-12-03T22:42:53.215Z,15.40
2022-12-03T22:44:55.845Z,15.10
2022-12-03T22:46:58.468Z,14.95
2022-12-03T22:49:06.705Z,15.38
2022-12-03T22:51:14.055Z,15.05
2022-12-03T22:53:16.983Z,15.02
2022-12-03T22:55:19.539Z,14.75
2022-12-03T22:57:22.256Z,15.27
2022-12-03T22:59:26.320Z,16.08
2022-12-03T23:01:31.386Z,15.05
2022-12-03T23:03:34.049Z,16.08
2022-12-03T23:05:39.573Z,14.80
2022-12-03T23:07:42.176Z,15.18
2022-12-03T23:09:44.906Z,14.77
2022-12-03T23:11:48.097Z,14.82
2022-12-03T23:13:50.862Z,16.33
2022-12-03T23:15:54.855Z,15.73
2022-12-03T23:17:58.378Z,15.15
2022-12-03T23:20:00.970Z,15.52
2022-12-03T23:22:03.657Z,15.70
2022-12-03T23:24:07.749Z,15.57
2022-12-03T23:26:13.127Z,15.07
2022-12-03T23:28:15.740Z,16.15
2022-12-03T23:30:18.482Z,15.98
2022-12-03T23:32:22.432Z,16.58
2022-12-03T23:34:25.068Z,16.15
2022-12-03T23:36:30.997Z,16.33
2022-12-03T23:38:33.660Z,16.45
2022-12-03T23:40:36.259Z,15.73
2022-12-03T23:42:38.983Z,17.15
2022-12-03T23:44:41.524Z,15.95
2022-12-03T23:46:44.140Z,16.63
2022-12-03T23:48:48.394Z,17.55
2022-12-03T23:50:50.957Z,17.05
2022-12-03T23:52:53.696Z,16.65
2022-12-03T23:54:56.303Z,17.63
2022-12-03T23:56:59.240Z,16.90
2022-12-03T23:59:01.896Z,17.48
